createdAt,value
2018-05-26T00:02:18.250Z,99.90
2018-05-26T00:04:44.322Z,99.90
2018-05-26T00:07:10.380Z,99.90
2018-05-26T00:09:36.473Z,99.90
2018-05-26T00:12:02.501Z,99.90
2018-05-26T00:14:28.597Z,99.90
2018-05-26T00:16:54.813Z,99.90
2018-05-26T00:19:20.826Z,99.90
2018-05-26T00:21:46.849Z,99.90
2018-05-26T00:24:12.872Z,99.90
2018-05-26T00:26:38.917Z,99.90
2018-05-26T00:29:05.026Z,99.90
2018-05-26T00:31:31.783Z,99.90
2018-05-26T00:33:58.562Z,99.90
2018-05-26T00:36:24.647Z,99.90
2018-05-26T00:38:50.661Z,99.90
2018-05-26T00:41:16.675Z,99.90
2018-05-26T00:43:42.677Z,99.90
2018-05-26T00:46:08.786Z,99.90
2018-05-26T00:48:34.865Z,99.90
2018-05-26T00:51:01.649Z,99.90
2018-05-26T00:53:27.671Z,99.90
2018-05-26T00:55:53.753Z,99.90
2018-05-26T00:58:20.513Z,99.90
2018-05-26T01:00:46.574Z,99.90
2018-05-26T01:03:13.638Z,99.90
2018-05-26T01:05:39.957Z,99.90
2018-05-26T01:08:06.342Z,99.90
2018-05-26T01:10:33.181Z,99.90
2018-05-26T01:12:59.208Z,99.90
2018-05-26T01:15:26.037Z,99.90
2018-05-26T01:17:52.147Z,99.90
2018-05-26T01:20:18.180Z,99.90
2018-05-26T01:22:44.237Z,99.90
2018-05-26T01:25:10.410Z,99.90
2018-05-26T01:27:36.870Z,99.90
2018-05-26T01:30:03.213Z,99.90
2018-05-26T01:32:29.983Z,99.90
2018-05-26T01:34:56.134Z,99.90
2018-05-26T01:37:22.191Z,99.90
2018-05-26T01:39:48.226Z,99.90
2018-05-26T01:42:14.263Z,99.90
2018-05-26T01:44:40.369Z,99.90
2018-05-26T01:47:07.174Z,99.90
2018-05-26T01:49:33.222Z,99.90
2018-05-26T01:51:59.347Z,99.90
2018-05-26T01:54:25.485Z,99.90
2018-05-26T01:56:51.470Z,99.90
2018-05-26T01:59:18.265Z,99.90
2018-05-26T02:01:44.320Z,99.90
2018-05-26T02:04:10.384Z,99.90
2018-05-26T02:06:37.558Z,99.90
2018-05-26T02:09:04.335Z,99.90
2018-05-26T02:11:30.389Z,99.90
2018-05-26T02:13:56.444Z,99.90
2018-05-26T02:16:23.193Z,99.90
2018-05-26T02:18:49.213Z,99.90
2018-05-26T02:21:15.238Z,99.90
2018-05-26T02:23:41.404Z,99.90
2018-05-26T02:26:08.179Z,99.90
2018-05-26T02:28:34.204Z,99.90
2018-05-26T02:31:00.239Z,99.90
2018-05-26T02:33:26.274Z,99.90
2018-05-26T02:35:52.325Z,99.90
2018-05-26T02:38:18.337Z,99.90
2018-05-26T02:40:44.369Z,99.90
2018-05-26T02:43:10.425Z,99.90
2018-05-26T02:45:36.450Z,99.90
2018-05-26T02:48:02.502Z,99.90
2018-05-26T02:50:28.542Z,99.90
2018-05-26T02:52:54.638Z,99.90
2018-05-26T02:55:20.676Z,99.90
2018-05-26T02:57:46.761Z,99.90
2018-05-26T03:00:12.926Z,99.90
2018-05-26T03:02:39.770Z,99.90
2018-05-26T03:05:11.995Z,99.90
2018-05-26T03:07:44.308Z,99.90
2018-05-26T03:10:17.454Z,99.90
2018-05-26T03:12:49.567Z,99.90
2018-05-26T03:15:15.594Z,99.90
2018-05-26T03:20:48.442Z,99.90
2018-05-26T03:23:14.483Z,99.90
2018-05-26T03:25:40.537Z,99.90
2018-05-26T03:28:06.572Z,99.90
2018-05-26T03:30:32.636Z,99.90
2018-05-26T03:32:58.688Z,99.90
2018-05-26T03:35:24.732Z,99.90
2018-05-26T03:37:51.613Z,99.90
2018-05-26T03:40:17.695Z,99.90
2018-05-26T03:42:43.722Z,99.90
2018-05-26T03:45:09.755Z,99.90
2018-05-26T03:47:35.820Z,99.90
2018-05-26T03:50:02.702Z,99.90
2018-05-26T03:52:28.744Z,99.90
2018-05-26T03:58:16.226Z,99.90
2018-05-26T04:00:42.400Z,99.90
2018-05-26T04:03:08.419Z,99.90
2018-05-26T04:05:34.444Z,99.90
2018-05-26T04:08:00.483Z,99.90
2018-05-26T04:10:26.569Z,99.90
2018-05-26T04:12:52.717Z,99.90
2018-05-26T04:15:19.457Z,99.90
2018-05-26T04:17:45.485Z,99.90
2018-05-26T04:20:11.573Z,99.90
2018-05-26T04:22:37.735Z,99.90
2018-05-26T04:25:04.040Z,99.90
2018-05-26T04:27:30.804Z,99.90
2018-05-26T04:29:56.801Z,99.90
2018-05-26T04:32:22.864Z,99.90
2018-05-26T04:34:49.661Z,99.90
2018-05-26T04:37:15.719Z,99.90
2018-05-26T04:39:41.814Z,99.90
2018-05-26T04:42:07.890Z,99.90
2018-05-26T04:44:33.933Z,99.90
2018-05-26T04:47:00.485Z,99.90
2018-05-26T04:49:26.557Z,99.90
2018-05-26T04:51:52.590Z,99.90
2018-05-26T04:54:19.406Z,99.90
2018-05-26T04:56:45.428Z,99.90
2018-05-26T04:59:11.690Z,99.90
2018-05-26T05:01:37.778Z,99.90
2018-05-26T05:04:03.810Z,99.90
2018-05-26T05:06:29.867Z,99.90
2018-05-26T05:08:55.964Z,99.90
2018-05-26T05:11:22.725Z,99.90
2018-05-26T05:13:49.898Z,99.90
2018-05-26T05:16:15.972Z,99.90
2018-05-26T05:18:41.994Z,99.90
2018-05-26T05:21:08.157Z,99.90
2018-05-26T05:23:34.382Z,99.90
2018-05-26T05:26:00.406Z,99.90
2018-05-26T05:28:26.910Z,99.90
2018-05-26T05:30:53.709Z,99.90
2018-05-26T05:33:20.911Z,99.90
2018-05-26T05:35:46.977Z,99.90
2018-05-26T05:38:13.770Z,99.90
2018-05-26T05:40:39.794Z,99.90
2018-05-26T05:43:05.911Z,99.90
2018-05-26T05:45:31.982Z,99.90
2018-05-26T05:47:58.159Z,99.90
2018-05-26T05:50:24.268Z,99.90
2018-05-26T05:52:50.292Z,99.90
2018-05-26T05:55:16.400Z,99.90
2018-05-26T05:57:43.540Z,99.90
2018-05-26T06:00:09.616Z,99.90
2018-05-26T06:02:35.717Z,99.90
2018-05-26T06:05:02.095Z,99.90
2018-05-26T06:07:28.967Z,99.90
2018-05-26T06:09:55.034Z,99.90
2018-05-26T06:12:21.414Z,99.90
2018-05-26T06:14:47.458Z,99.90
2018-05-26T06:17:14.273Z,99.90
2018-05-26T06:19:40.361Z,99.90
2018-05-26T06:22:06.423Z,99.90
2018-05-26T06:24:32.530Z,99.90
2018-05-26T06:26:58.580Z,99.90
2018-05-26T06:29:24.711Z,99.90
2018-05-26T06:31:51.590Z,99.90
2018-05-26T06:34:17.595Z,99.90
2018-05-26T06:36:43.633Z,99.90
2018-05-26T06:39:09.717Z,99.90
2018-05-26T06:41:35.803Z,99.90
2018-05-26T06:44:02.817Z,99.90
2018-05-26T06:46:28.865Z,99.90
2018-05-26T06:48:54.949Z,99.90
2018-05-26T06:51:21.770Z,99.90
2018-05-26T06:53:47.817Z,99.90
2018-05-26T06:56:13.902Z,99.90
2018-05-26T06:58:39.967Z,99.90
2018-05-26T07:01:06.016Z,99.90
2018-05-26T07:03:32.070Z,99.90
2018-05-26T07:05:58.617Z,99.90
2018-05-26T07:08:24.568Z,99.90
2018-05-26T07:10:50.500Z,99.90
2018-05-26T07:13:16.512Z,99.90
2018-05-26T07:15:43.256Z,99.90
2018-05-26T07:18:09.361Z,99.90
2018-05-26T07:20:35.463Z,99.90
2018-05-26T07:23:01.607Z,99.90
2018-05-26T07:25:28.433Z,99.90
2018-05-26T07:27:54.528Z,99.90
2018-05-26T07:30:20.627Z,99.90
2018-05-26T07:32:46.713Z,99.90
2018-05-26T07:35:13.182Z,99.90
2018-05-26T07:37:40.390Z,99.90
2018-05-26T07:40:06.552Z,99.90
2018-05-26T07:42:32.610Z,99.90
2018-05-26T07:44:58.659Z,99.90
2018-05-26T07:47:25.032Z,99.90
2018-05-26T07:49:51.083Z,99.90
2018-05-26T07:52:17.181Z,99.90
2018-05-26T07:54:43.334Z,99.90
2018-05-26T07:57:10.245Z,99.90
2018-05-26T07:59:36.301Z,99.90
2018-05-26T08:02:02.364Z,99.90
2018-05-26T08:04:28.473Z,99.90
2018-05-26T08:06:54.611Z,99.90
2018-05-26T08:09:20.678Z,99.90
2018-05-26T08:11:46.774Z,99.90
2018-05-26T08:14:12.825Z,99.90
2018-05-26T08:16:38.931Z,99.90
2018-05-26T08:19:05.691Z,99.90
2018-05-26T08:21:31.778Z,99.90
2018-05-26T08:23:57.846Z,99.90
2018-05-26T08:26:23.904Z,99.90
2018-05-26T08:28:50.690Z,99.90
2018-05-26T08:31:17.278Z,99.90
2018-05-26T08:33:43.337Z,99.90
2018-05-26T08:36:10.142Z,99.90
2018-05-26T08:38:36.990Z,99.90
2018-05-26T08:41:03.062Z,99.90
2018-05-26T08:43:29.114Z,99.90
2018-05-26T08:45:55.259Z,99.90
2018-05-26T08:48:22.076Z,99.90
2018-05-26T08:50:48.179Z,99.90
2018-05-26T08:53:14.246Z,99.90
2018-05-26T08:55:40.723Z,99.90
2018-05-26T08:58:06.871Z,99.90
2018-05-26T09:00:32.954Z,99.90
2018-05-26T09:02:59.100Z,99.90
2018-05-26T09:05:25.888Z,99.90
2018-05-26T09:07:51.932Z,99.90
2018-05-26T09:10:18.010Z,99.90
2018-05-26T09:12:44.537Z,99.90
2018-05-26T09:15:10.610Z,99.90
2018-05-26T09:17:37.528Z,99.90
2018-05-26T09:20:03.584Z,99.90
2018-05-26T09:22:29.672Z,99.90
2018-05-26T09:24:55.759Z,99.90
2018-05-26T09:27:22.171Z,99.90
2018-05-26T09:29:48.227Z,99.90
2018-05-26T09:32:14.278Z,99.90
2018-05-26T09:34:40.319Z,99.90
2018-05-26T09:37:06.448Z,99.90
2018-05-26T09:39:32.509Z,99.90
2018-05-26T09:41:58.591Z,99.90
2018-05-26T09:44:24.652Z,99.90
2018-05-26T09:46:51.557Z,99.90
2018-05-26T09:49:17.740Z,99.90
2018-05-26T09:51:44.576Z,99.90
2018-05-26T09:54:11.489Z,99.90
2018-05-26T09:56:37.904Z,99.90
2018-05-26T09:59:04.039Z,99.90
2018-05-26T10:01:30.157Z,99.90
2018-05-26T10:03:56.584Z,99.90
2018-05-26T10:06:22.655Z,99.90
2018-05-26T10:08:48.980Z,99.90
2018-05-26T10:11:15.069Z,99.90
2018-05-26T10:13:41.151Z,99.90
2018-05-26T10:16:07.275Z,99.90
2018-05-26T10:18:33.339Z,99.90
2018-05-26T10:21:00.242Z,99.90
2018-05-26T10:23:26.472Z,99.90
2018-05-26T10:25:52.578Z,99.90
2018-05-26T10:28:18.665Z,99.90
2018-05-26T10:30:45.145Z,98.70
2018-05-26T10:33:11.235Z,99.20
2018-05-26T10:35:37.439Z,98.80
2018-05-26T10:38:03.606Z,97.70
2018-05-26T10:40:29.609Z,95.90
2018-05-26T10:42:55.683Z,94.50
2018-05-26T10:45:34.143Z,95.40
2018-05-26T10:48:00.183Z,95.20
2018-05-26T10:50:26.312Z,92.70
2018-05-26T10:52:52.334Z,91.00
2018-05-26T10:55:18.418Z,90.00
2018-05-26T10:57:44.535Z,86.80
2018-05-26T11:00:10.710Z,90.20
2018-05-26T11:02:36.951Z,90.80
2018-05-26T11:05:03.272Z,90.10
2018-05-26T11:07:29.392Z,85.70
2018-05-26T11:09:55.516Z,85.70
2018-05-26T11:12:21.637Z,84.60
2018-05-26T11:14:48.489Z,76.30
2018-05-26T11:17:15.389Z,74.40
2018-05-26T11:19:41.450Z,74.10
2018-05-26T11:22:07.740Z,69.10
2018-05-26T11:24:33.936Z,65.90
2018-05-26T11:27:00.645Z,57.70
2018-05-26T11:29:26.760Z,57.50
2018-05-26T11:31:53.590Z,51.40
2018-05-26T11:34:19.712Z,51.20
2018-05-26T11:36:45.792Z,49.70
2018-05-26T11:39:12.095Z,47.80
2018-05-26T11:41:38.191Z,47.60
2018-05-26T11:44:04.258Z,48.30
2018-05-26T11:46:30.491Z,47.40
2018-05-26T11:48:56.584Z,45.40
2018-05-26T11:51:23.361Z,45.30
2018-05-26T11:53:49.459Z,45.20
2018-05-26T11:56:15.489Z,45.60
2018-05-26T11:58:41.618Z,44.40
2018-05-26T12:01:07.808Z,42.50
2018-05-26T12:03:33.925Z,42.30
2018-05-26T12:06:00.016Z,41.70
2018-05-26T12:08:26.113Z,41.50
2018-05-26T12:10:52.463Z,41.10
2018-05-26T12:13:19.238Z,42.90
2018-05-26T12:15:45.301Z,42.90
2018-05-26T12:18:11.965Z,44.30
2018-05-26T12:20:38.028Z,45.20
2018-05-26T12:23:04.195Z,45.50
2018-05-26T12:25:30.255Z,45.20
2018-05-26T12:27:56.329Z,45.20
2018-05-26T12:30:23.419Z,41.80
2018-05-26T12:32:50.582Z,39.10
2018-05-26T12:35:16.651Z,39.50
2018-05-26T12:37:42.731Z,39.50
2018-05-26T12:40:08.915Z,37.80
2018-05-26T12:42:34.984Z,37.30
2018-05-26T12:45:01.147Z,36.80
2018-05-26T12:47:27.229Z,36.10
2018-05-26T12:49:53.305Z,36.10
2018-05-26T12:52:19.347Z,35.60
2018-05-26T12:54:45.645Z,35.20
2018-05-26T12:57:12.141Z,34.40
2018-05-26T12:59:38.239Z,34.30
2018-05-26T13:02:04.294Z,33.20
2018-05-26T13:04:30.346Z,32.90
2018-05-26T13:06:56.410Z,31.90
2018-05-26T13:09:23.188Z,31.40
2018-05-26T13:11:49.513Z,31.40
2018-05-26T13:14:15.557Z,31.20
2018-05-26T13:16:41.617Z,30.60
2018-05-26T13:19:07.677Z,30.00
2018-05-26T13:21:33.802Z,30.20
2018-05-26T13:23:59.887Z,30.60
2018-05-26T13:26:26.672Z,31.50
2018-05-26T13:28:52.738Z,31.10
2018-05-26T13:31:18.822Z,31.30
2018-05-26T13:33:44.907Z,31.30
2018-05-26T13:36:11.149Z,32.40
2018-05-26T13:38:37.976Z,33.60
2018-05-26T13:41:04.036Z,33.30
2018-05-26T13:43:30.216Z,33.50
2018-05-26T13:45:56.480Z,32.90
2018-05-26T13:48:23.316Z,31.90
2018-05-26T13:50:49.373Z,31.90
2018-05-26T13:53:15.448Z,31.70
2018-05-26T13:55:41.608Z,31.60
2018-05-26T13:58:07.704Z,31.10
2018-05-26T14:00:34.232Z,31.10
2018-05-26T14:05:34.143Z,29.60
2018-05-26T14:08:00.192Z,29.90
2018-05-26T14:10:26.254Z,29.60
2018-05-26T14:12:53.076Z,29.10
2018-05-26T14:15:19.145Z,29.00
2018-05-26T14:17:45.193Z,28.90
2018-05-26T14:20:12.251Z,28.90
2018-05-26T14:22:39.055Z,28.80
2018-05-26T14:25:05.116Z,28.80
2018-05-26T14:27:31.217Z,28.60
2018-05-26T14:29:57.258Z,28.30
2018-05-26T14:32:23.281Z,28.40
2018-05-26T14:34:49.335Z,27.90
2018-05-26T14:37:15.436Z,28.20
2018-05-26T14:39:42.233Z,28.40
2018-05-26T14:42:08.535Z,28.30
2018-05-26T14:44:35.321Z,28.60
2018-05-26T14:47:01.584Z,28.10
2018-05-26T14:49:27.658Z,27.70
2018-05-26T14:51:53.732Z,27.50
2018-05-26T14:54:19.815Z,27.50
2018-05-26T14:56:45.902Z,27.80
2018-05-26T14:59:12.063Z,27.80
2018-05-26T15:01:38.109Z,27.80
2018-05-26T15:04:04.206Z,27.70
2018-05-26T15:06:30.979Z,27.50
2018-05-26T15:08:57.041Z,27.50
2018-05-26T15:11:23.102Z,27.80
2018-05-26T15:13:49.143Z,27.70
2018-05-26T15:16:15.946Z,27.00
2018-05-26T15:18:42.030Z,27.40
2018-05-26T15:21:08.084Z,27.10
2018-05-26T15:23:34.920Z,27.40
2018-05-26T15:26:01.018Z,27.40
2018-05-26T15:28:27.142Z,27.60
2018-05-26T15:30:53.236Z,27.80
2018-05-26T15:33:19.379Z,27.70
2018-05-26T15:35:45.536Z,27.10
2018-05-26T15:38:11.790Z,27.20
2018-05-26T15:40:38.673Z,27.40
2018-05-26T15:43:04.755Z,27.40
2018-05-26T15:45:30.950Z,27.80
2018-05-26T15:47:57.123Z,27.60
2018-05-26T15:50:23.217Z,27.60
2018-05-26T15:52:49.293Z,27.30
2018-05-26T15:55:15.386Z,27.10
2018-05-26T15:57:41.451Z,27.20
2018-05-26T16:00:07.744Z,27.30
2018-05-26T16:02:41.544Z,27.50
2018-05-26T16:05:07.640Z,27.40
2018-05-26T16:07:33.698Z,27.20
2018-05-26T16:09:59.751Z,27.70
2018-05-26T16:12:25.856Z,27.70
2018-05-26T16:14:52.074Z,27.70
2018-05-26T16:17:18.196Z,27.50
2018-05-26T16:19:45.010Z,27.60
2018-05-26T16:22:11.123Z,27.60
2018-05-26T16:24:37.221Z,27.70
2018-05-26T16:27:03.290Z,27.80
2018-05-26T16:29:29.597Z,28.10
2018-05-26T16:31:55.587Z,28.60
2018-05-26T16:34:21.661Z,28.90
2018-05-26T16:36:47.741Z,29.10
2018-05-26T16:39:13.836Z,28.80
2018-05-26T16:41:39.882Z,28.80
2018-05-26T16:44:05.938Z,29.40
2018-05-26T16:46:32.791Z,29.40
2018-05-26T16:48:58.857Z,29.40
2018-05-26T16:51:24.896Z,29.70
2018-05-26T16:53:50.905Z,29.50
2018-05-26T16:56:16.990Z,29.20
2018-05-26T16:58:43.138Z,29.50
2018-05-26T17:01:09.192Z,29.20
2018-05-26T17:03:35.233Z,29.40
2018-05-26T17:06:01.303Z,28.80
2018-05-26T17:08:27.358Z,29.40
2018-05-26T17:10:53.357Z,29.50
2018-05-26T17:13:20.147Z,30.00
2018-05-26T17:15:46.198Z,30.00
2018-05-26T17:18:12.381Z,29.70
2018-05-26T17:20:38.472Z,30.90
2018-05-26T17:23:04.492Z,32.50
2018-05-26T17:25:32.394Z,34.40
2018-05-26T17:27:58.390Z,36.30
2018-05-26T17:30:25.182Z,40.30
2018-05-26T17:32:51.286Z,40.20
2018-05-26T17:35:17.304Z,42.60
2018-05-26T17:37:43.341Z,43.90
2018-05-26T17:40:09.410Z,44.60
2018-05-26T17:42:35.441Z,45.80
2018-05-26T17:45:01.614Z,46.90
2018-05-26T17:47:27.647Z,47.60
2018-05-26T17:49:53.710Z,48.30
2018-05-26T17:52:19.778Z,49.10
2018-05-26T17:54:46.626Z,50.60
2018-05-26T17:57:13.434Z,51.40
2018-05-26T17:59:39.524Z,51.40
2018-05-26T18:02:07.249Z,53.00
2018-05-26T18:04:33.662Z,52.90
2018-05-26T18:06:59.740Z,53.80
2018-05-26T18:09:25.806Z,54.30
2018-05-26T18:11:51.877Z,54.20
2018-05-26T18:14:17.943Z,54.70
2018-05-26T18:16:44.258Z,55.30
2018-05-26T18:19:10.351Z,55.90
2018-05-26T18:21:36.429Z,56.30
2018-05-26T18:24:02.488Z,56.40
2018-05-26T18:26:28.535Z,57.10
2018-05-26T18:28:54.578Z,57.50
2018-05-26T18:31:20.615Z,58.10
2018-05-26T18:33:46.736Z,58.40
2018-05-26T18:36:12.856Z,59.00
2018-05-26T18:38:39.711Z,59.20
2018-05-26T18:41:06.798Z,59.70
2018-05-26T18:43:33.348Z,59.70
2018-05-26T18:45:59.391Z,60.20
2018-05-26T18:48:25.541Z,60.80
2018-05-26T18:50:51.619Z,61.50
2018-05-26T18:53:17.670Z,62.40
2018-05-26T18:55:44.485Z,64.20
2018-05-26T18:58:10.539Z,64.20
2018-05-26T19:00:36.627Z,65.50
2018-05-26T19:03:02.778Z,66.80
2018-05-26T19:05:29.315Z,68.20
2018-05-26T19:07:55.438Z,69.50
2018-05-26T19:10:21.494Z,71.90
2018-05-26T19:12:47.562Z,74.30
2018-05-26T19:15:13.611Z,77.50
2018-05-26T19:17:39.637Z,80.70
2018-05-26T19:20:05.938Z,83.80
2018-05-26T19:22:31.983Z,87.50
2018-05-26T19:24:58.032Z,90.80
2018-05-26T19:27:24.242Z,92.20
2018-05-26T19:29:50.266Z,94.10
2018-05-26T19:32:17.081Z,97.40
2018-05-26T19:34:43.184Z,97.40
2018-05-26T19:37:09.238Z,98.70
2018-05-26T19:39:35.363Z,99.90
2018-05-26T19:42:01.414Z,99.90
2018-05-26T19:44:27.486Z,99.90
2018-05-26T19:46:53.552Z,99.90
2018-05-26T19:49:19.629Z,99.90
2018-05-26T19:51:45.785Z,99.90
2018-05-26T19:54:12.001Z,99.90
2018-05-26T19:56:38.057Z,99.90
2018-05-26T19:59:04.173Z,99.90
2018-05-26T20:01:30.396Z,99.90
2018-05-26T20:03:56.449Z,99.90
2018-05-26T20:06:22.543Z,99.90
2018-05-26T20:08:48.647Z,99.90
2018-05-26T20:11:15.410Z,99.90
2018-05-26T20:13:41.454Z,99.90
2018-05-26T20:16:07.558Z,99.90
2018-05-26T20:18:33.687Z,99.90
2018-05-26T20:20:59.789Z,99.90
2018-05-26T20:23:26.655Z,99.90
2018-05-26T20:25:53.520Z,99.90
2018-05-26T20:28:20.466Z,99.90
2018-05-26T20:30:46.567Z,99.90
2018-05-26T20:33:12.689Z,99.90
2018-05-26T20:35:38.721Z,99.90
2018-05-26T20:38:04.803Z,99.90
2018-05-26T20:40:30.870Z,99.90
2018-05-26T20:42:59.434Z,99.90
2018-05-26T20:45:25.470Z,99.90
2018-05-26T20:47:51.477Z,99.90
2018-05-26T20:50:17.521Z,99.90
2018-05-26T20:52:43.546Z,99.90
2018-05-26T20:55:09.766Z,99.90
2018-05-26T20:57:35.805Z,99.90
2018-05-26T21:00:01.849Z,99.90
2018-05-26T21:02:27.898Z,99.90
2018-05-26T21:04:54.103Z,99.90
2018-05-26T21:07:20.126Z,99.90
2018-05-26T21:09:46.194Z,99.90
2018-05-26T21:12:12.304Z,99.90
2018-05-26T21:14:39.162Z,99.90
2018-05-26T21:17:05.929Z,99.90
2018-05-26T21:19:31.989Z,99.90
2018-05-26T21:21:58.014Z,99.90
2018-05-26T21:24:24.106Z,99.90
2018-05-26T21:26:50.155Z,99.90
2018-05-26T21:29:16.282Z,99.90
2018-05-26T21:31:42.314Z,99.90
2018-05-26T21:34:08.351Z,99.90
2018-05-26T21:36:34.384Z,99.90
2018-05-26T21:39:00.444Z,99.90
2018-05-26T21:41:27.256Z,99.90
2018-05-26T21:43:53.330Z,99.90
2018-05-26T21:46:19.397Z,99.90
2018-05-26T21:48:45.498Z,99.90
2018-05-26T21:51:11.557Z,99.90
2018-05-26T21:53:38.342Z,99.90
2018-05-26T21:56:04.409Z,99.90
2018-05-26T21:58:30.490Z,99.90
2018-05-26T22:00:57.287Z,99.90
2018-05-26T22:03:23.310Z,99.90
2018-05-26T22:05:49.474Z,99.90
2018-05-26T22:08:15.518Z,99.90
2018-05-26T22:10:41.570Z,99.90
2018-05-26T22:13:07.598Z,99.90
2018-05-26T22:15:34.401Z,99.90
2018-05-26T22:18:01.179Z,99.90
2018-05-26T22:20:27.261Z,99.90
2018-05-26T22:22:54.038Z,99.90
2018-05-26T22:25:20.805Z,99.90
2018-05-26T22:27:46.833Z,99.90
2018-05-26T22:30:12.928Z,99.90
2018-05-26T22:32:38.962Z,99.90
2018-05-26T22:35:04.993Z,99.90
2018-05-26T22:37:31.058Z,99.90
2018-05-26T22:39:57.840Z,99.90
2018-05-26T22:42:23.857Z,99.90
2018-05-26T22:44:50.673Z,99.90
2018-05-26T22:47:16.730Z,99.90
2018-05-26T22:49:42.785Z,99.90
2018-05-26T22:52:09.584Z,99.90
2018-05-26T22:54:35.609Z,99.90
2018-05-26T22:57:01.712Z,99.90
2018-05-26T22:59:28.592Z,99.90
2018-05-26T23:01:54.623Z,99.90
2018-05-26T23:04:20.685Z,99.90
2018-05-26T23:06:46.952Z,99.90
2018-05-26T23:09:13.055Z,99.90
2018-05-26T23:11:39.407Z,99.90
2018-05-26T23:14:05.500Z,99.90
2018-05-26T23:16:31.538Z,99.90
2018-05-26T23:18:58.349Z,99.90
2018-05-26T23:21:24.427Z,99.90
2018-05-26T23:23:50.568Z,99.90
2018-05-26T23:26:17.341Z,99.90
2018-05-26T23:28:44.127Z,99.90
2018-05-26T23:31:10.471Z,99.90
2018-05-26T23:33:36.514Z,99.90
2018-05-26T23:36:02.583Z,99.90
2018-05-26T23:38:28.629Z,99.90
2018-05-26T23:40:54.696Z,99.90
2018-05-26T23:43:20.753Z,99.90
2018-05-26T23:45:46.793Z,99.90
2018-05-26T23:48:12.860Z,99.90
2018-05-26T23:50:39.246Z,99.90
2018-05-26T23:53:06.190Z,99.90
2018-05-26T23:55:32.998Z,99.90
2018-05-26T23:57:59.134Z,99.90
